Terminal Aerodrome Forecast
Issued by NWS Wilmington, NC

Current Version | Previous Version | Text Only | Print | Product List | Glossary On
Versions: 1 2 3 4 5 6 7 8 9 10 11 12 13 14 15 16 17 18 19 20 21
631
FTUS42 KILM 260528
TAFMYR
TAF
KMYR 260528Z 2606/2706 25008KT P6SM SKC
     FM261700 26011G19KT P6SM SKC
     FM270000 25007KT P6SM SKC
      AMD LTD TO CLD VIS AND WIND TIL 261000=

USA.gov is the U.S. government's official web portal to all federal, state and local government web resources and services.